sensor_id;sensor_type;location;lat;lon;timestamp;temperature;humidity
38325;DHT22;24126;52.672;13.622;2022-12-20T00:01:12;8.40;79.30
38325;DHT22;24126;52.672;13.622;2022-12-20T00:03:39;8.40;79.30
38325;DHT22;24126;52.672;13.622;2022-12-20T00:06:06;8.40;79.30
38325;DHT22;24126;52.672;13.622;2022-12-20T00:08:33;8.40;79.30
38325;DHT22;24126;52.672;13.622;2022-12-20T00:11:01;8.40;79.20
38325;DHT22;24126;52.672;13.622;2022-12-20T00:13:29;8.40;79.20
38325;DHT22;24126;52.672;13.622;2022-12-20T00:16:03;8.40;79.30
38325;DHT22;24126;52.672;13.622;2022-12-20T00:18:31;8.40;79.30
38325;DHT22;24126;52.672;13.622;2022-12-20T00:20:58;8.40;79.20
38325;DHT22;24126;52.672;13.622;2022-12-20T00:23:25;8.40;79.10
38325;DHT22;24126;52.672;13.622;2022-12-20T00:26:01;8.40;79.10
38325;DHT22;24126;52.672;13.622;2022-12-20T00:28:29;8.40;79.10
38325;DHT22;24126;52.672;13.622;2022-12-20T00:30:56;8.40;78.90
38325;DHT22;24126;52.672;13.622;2022-12-20T00:33:23;8.40;78.90
38325;DHT22;24126;52.672;13.622;2022-12-20T00:35:50;8.40;78.80
38325;DHT22;24126;52.672;13.622;2022-12-20T00:38:18;8.40;78.80
38325;DHT22;24126;52.672;13.622;2022-12-20T00:40:45;8.40;78.80
38325;DHT22;24126;52.672;13.622;2022-12-20T00:43:12;8.40;78.70
38325;DHT22;24126;52.672;13.622;2022-12-20T00:45:40;8.40;78.70
38325;DHT22;24126;52.672;13.622;2022-12-20T00:48:07;8.40;78.70
38325;DHT22;24126;52.672;13.622;2022-12-20T00:50:34;8.30;78.80
38325;DHT22;24126;52.672;13.622;2022-12-20T00:53:01;8.30;78.90
38325;DHT22;24126;52.672;13.622;2022-12-20T00:55:28;8.30;78.80
38325;DHT22;24126;52.672;13.622;2022-12-20T00:57:55;8.30;79.00
38325;DHT22;24126;52.672;13.622;2022-12-20T01:00:22;8.30;78.90
38325;DHT22;24126;52.672;13.622;2022-12-20T01:02:49;8.30;78.80
38325;DHT22;24126;52.672;13.622;2022-12-20T01:05:16;8.30;78.80
38325;DHT22;24126;52.672;13.622;2022-12-20T01:07:43;8.30;78.70
38325;DHT22;24126;52.672;13.622;2022-12-20T01:10:10;8.30;78.80
38325;DHT22;24126;52.672;13.622;2022-12-20T01:12:37;8.30;78.70
38325;DHT22;24126;52.672;13.622;2022-12-20T01:15:04;8.30;78.70
38325;DHT22;24126;52.672;13.622;2022-12-20T01:17:32;8.30;78.70
38325;DHT22;24126;52.672;13.622;2022-12-20T01:20:00;8.30;78.90
38325;DHT22;24126;52.672;13.622;2022-12-20T01:22:27;8.30;78.80
38325;DHT22;24126;52.672;13.622;2022-12-20T01:24:54;8.30;78.90
38325;DHT22;24126;52.672;13.622;2022-12-20T01:27:21;8.30;78.80
38325;DHT22;24126;52.672;13.622;2022-12-20T01:29:48;8.30;78.60
38325;DHT22;24126;52.672;13.622;2022-12-20T01:32:15;8.30;78.60
38325;DHT22;24126;52.672;13.622;2022-12-20T01:34:42;8.40;78.50
38325;DHT22;24126;52.672;13.622;2022-12-20T01:37:09;8.30;79.20
38325;DHT22;24126;52.672;13.622;2022-12-20T01:39:36;8.40;78.50
38325;DHT22;24126;52.672;13.622;2022-12-20T01:42:03;8.40;78.40
38325;DHT22;24126;52.672;13.622;2022-12-20T01:46:57;8.40;78.30
38325;DHT22;24126;52.672;13.622;2022-12-20T01:49:26;8.50;78.30
38325;DHT22;24126;52.672;13.622;2022-12-20T01:51:56;8.50;78.20
38325;DHT22;24126;52.672;13.622;2022-12-20T01:54:25;8.50;78.10
38325;DHT22;24126;52.672;13.622;2022-12-20T01:56:55;8.50;78.10
38325;DHT22;24126;52.672;13.622;2022-12-20T01:59:24;8.50;78.20
38325;DHT22;24126;52.672;13.622;2022-12-20T02:01:52;8.50;78.10
38325;DHT22;24126;52.672;13.622;2022-12-20T02:04:19;8.50;78.00
38325;DHT22;24126;52.672;13.622;2022-12-20T02:06:46;8.50;78.00
38325;DHT22;24126;52.672;13.622;2022-12-20T02:09:12;8.60;78.00
38325;DHT22;24126;52.672;13.622;2022-12-20T02:14:14;8.60;78.50
38325;DHT22;24126;52.672;13.622;2022-12-20T02:16:48;8.60;77.50
38325;DHT22;24126;52.672;13.622;2022-12-20T02:24:37;8.60;77.40
38325;DHT22;24126;52.672;13.622;2022-12-20T02:34:41;8.60;77.50
38325;DHT22;24126;52.672;13.622;2022-12-20T02:37:08;8.60;77.50
38325;DHT22;24126;52.672;13.622;2022-12-20T02:39:36;8.60;77.50
38325;DHT22;24126;52.672;13.622;2022-12-20T02:42:09;8.60;78.10
38325;DHT22;24126;52.672;13.622;2022-12-20T02:44:37;8.60;77.40
38325;DHT22;24126;52.672;13.622;2022-12-20T02:47:25;8.60;77.40
38325;DHT22;24126;52.672;13.622;2022-12-20T02:49:52;8.60;77.50
38325;DHT22;24126;52.672;13.622;2022-12-20T02:52:20;8.60;77.50
38325;DHT22;24126;52.672;13.622;2022-12-20T02:54:50;8.60;77.50
38325;DHT22;24126;52.672;13.622;2022-12-20T02:57:19;8.60;77.50
38325;DHT22;24126;52.672;13.622;2022-12-20T02:59:49;8.70;77.50
38325;DHT22;24126;52.672;13.622;2022-12-20T03:02:22;8.70;77.40
38325;DHT22;24126;52.672;13.622;2022-12-20T03:04:49;8.70;77.10
38325;DHT22;24126;52.672;13.622;2022-12-20T03:07:17;8.70;77.20
38325;DHT22;24126;52.672;13.622;2022-12-20T03:09:44;8.70;77.30
38325;DHT22;24126;52.672;13.622;2022-12-20T03:12:13;8.70;77.30
38325;DHT22;24126;52.672;13.622;2022-12-20T03:14:42;8.70;77.30
38325;DHT22;24126;52.672;13.622;2022-12-20T03:17:11;8.70;77.40
38325;DHT22;24126;52.672;13.622;2022-12-20T03:19:42;8.70;77.20
38325;DHT22;24126;52.672;13.622;2022-12-20T03:22:09;8.70;77.20
38325;DHT22;24126;52.672;13.622;2022-12-20T03:24:37;8.70;77.30
38325;DHT22;24126;52.672;13.622;2022-12-20T03:27:10;8.70;77.40
38325;DHT22;24126;52.672;13.622;2022-12-20T03:29:38;8.70;77.40
38325;DHT22;24126;52.672;13.622;2022-12-20T03:32:05;8.70;77.40
38325;DHT22;24126;52.672;13.622;2022-12-20T03:34:32;8.70;77.30
38325;DHT22;24126;52.672;13.622;2022-12-20T03:37:00;8.80;77.20
38325;DHT22;24126;52.672;13.622;2022-12-20T03:39:27;8.80;77.20
38325;DHT22;24126;52.672;13.622;2022-12-20T03:41:54;8.80;76.90
38325;DHT22;24126;52.672;13.622;2022-12-20T03:44:21;8.90;76.90
38325;DHT22;24126;52.672;13.622;2022-12-20T03:46:50;8.90;76.80
38325;DHT22;24126;52.672;13.622;2022-12-20T03:49:17;8.90;76.70
38325;DHT22;24126;52.672;13.622;2022-12-20T03:51:48;8.90;76.70
38325;DHT22;24126;52.672;13.622;2022-12-20T03:54:15;8.90;76.70
38325;DHT22;24126;52.672;13.622;2022-12-20T03:57:02;9.00;76.70
38325;DHT22;24126;52.672;13.622;2022-12-20T03:59:30;9.00;76.80
38325;DHT22;24126;52.672;13.622;2022-12-20T04:01:58;9.00;76.80
38325;DHT22;24126;52.672;13.622;2022-12-20T04:04:28;9.00;76.80
38325;DHT22;24126;52.672;13.622;2022-12-20T04:06:55;9.00;76.80
38325;DHT22;24126;52.672;13.622;2022-12-20T04:09:22;9.00;76.80
38325;DHT22;24126;52.672;13.622;2022-12-20T04:11:54;9.00;76.60
38325;DHT22;24126;52.672;13.622;2022-12-20T04:14:22;9.00;76.50
38325;DHT22;24126;52.672;13.622;2022-12-20T04:16:50;9.00;76.40
38325;DHT22;24126;52.672;13.622;2022-12-20T04:19:18;9.00;76.40
38325;DHT22;24126;52.672;13.622;2022-12-20T04:21:46;9.00;76.20
38325;DHT22;24126;52.672;13.622;2022-12-20T04:24:15;9.00;76.20
38325;DHT22;24126;52.672;13.622;2022-12-20T04:26:54;8.90;75.90
38325;DHT22;24126;52.672;13.622;2022-12-20T04:29:21;8.90;76.00
38325;DHT22;24126;52.672;13.622;2022-12-20T04:31:49;8.90;75.90
38325;DHT22;24126;52.672;13.622;2022-12-20T04:34:16;8.90;75.90
38325;DHT22;24126;52.672;13.622;2022-12-20T04:36:43;8.90;76.00
38325;DHT22;24126;52.672;13.622;2022-12-20T04:39:17;8.80;76.10
38325;DHT22;24126;52.672;13.622;2022-12-20T04:42:09;8.90;76.20
38325;DHT22;24126;52.672;13.622;2022-12-20T04:44:37;8.90;76.10
38325;DHT22;24126;52.672;13.622;2022-12-20T04:47:04;8.80;75.90
38325;DHT22;24126;52.672;13.622;2022-12-20T04:49:31;8.80;75.90
38325;DHT22;24126;52.672;13.622;2022-12-20T04:51:58;8.80;76.00
38325;DHT22;24126;52.672;13.622;2022-12-20T04:54:46;8.80;76.10
38325;DHT22;24126;52.672;13.622;2022-12-20T04:57:16;8.80;76.00
38325;DHT22;24126;52.672;13.622;2022-12-20T04:59:44;8.80;75.90
38325;DHT22;24126;52.672;13.622;2022-12-20T05:02:12;8.80;75.70
38325;DHT22;24126;52.672;13.622;2022-12-20T05:04:50;8.80;76.00
38325;DHT22;24126;52.672;13.622;2022-12-20T05:07:17;8.70;75.90
38325;DHT22;24126;52.672;13.622;2022-12-20T05:09:50;8.70;76.10
38325;DHT22;24126;52.672;13.622;2022-12-20T05:12:17;8.60;76.20
38325;DHT22;24126;52.672;13.622;2022-12-20T05:14:44;8.60;76.20
38325;DHT22;24126;52.672;13.622;2022-12-20T05:17:14;8.60;76.30
38325;DHT22;24126;52.672;13.622;2022-12-20T05:19:41;8.50;76.30
38325;DHT22;24126;52.672;13.622;2022-12-20T05:22:09;8.50;76.40
38325;DHT22;24126;52.672;13.622;2022-12-20T05:25:10;8.50;76.30
38325;DHT22;24126;52.672;13.622;2022-12-20T05:27:57;8.60;76.30
38325;DHT22;24126;52.672;13.622;2022-12-20T05:30:26;8.50;76.10
38325;DHT22;24126;52.672;13.622;2022-12-20T05:32:54;8.50;76.00
38325;DHT22;24126;52.672;13.622;2022-12-20T05:35:21;8.50;76.00
38325;DHT22;24126;52.672;13.622;2022-12-20T05:37:53;8.50;76.10
38325;DHT22;24126;52.672;13.622;2022-12-20T05:40:20;8.50;76.20
38325;DHT22;24126;52.672;13.622;2022-12-20T05:42:48;8.40;76.40
38325;DHT22;24126;52.672;13.622;2022-12-20T05:45:16;8.40;76.80
38325;DHT22;24126;52.672;13.622;2022-12-20T05:47:49;8.40;77.00
38325;DHT22;24126;52.672;13.622;2022-12-20T05:50:16;8.40;77.10
38325;DHT22;24126;52.672;13.622;2022-12-20T05:53:03;8.40;77.20
38325;DHT22;24126;52.672;13.622;2022-12-20T05:55:30;8.50;77.10
38325;DHT22;24126;52.672;13.622;2022-12-20T05:57:57;8.50;76.90
38325;DHT22;24126;52.672;13.622;2022-12-20T06:00:43;8.60;77.00
38325;DHT22;24126;52.672;13.622;2022-12-20T06:03:10;8.60;76.80
38325;DHT22;24126;52.672;13.622;2022-12-20T06:05:39;8.60;76.80
38325;DHT22;24126;52.672;13.622;2022-12-20T06:08:07;8.60;76.90
38325;DHT22;24126;52.672;13.622;2022-12-20T06:10:35;8.60;77.00
38325;DHT22;24126;52.672;13.622;2022-12-20T06:13:02;8.60;77.00
38325;DHT22;24126;52.672;13.622;2022-12-20T06:15:29;8.70;76.90
38325;DHT22;24126;52.672;13.622;2022-12-20T06:17:59;8.60;76.90
38325;DHT22;24126;52.672;13.622;2022-12-20T06:20:26;8.70;76.90
38325;DHT22;24126;52.672;13.622;2022-12-20T06:22:54;8.70;77.00
38325;DHT22;24126;52.672;13.622;2022-12-20T06:25:21;8.70;77.00
38325;DHT22;24126;52.672;13.622;2022-12-20T06:27:48;8.60;77.10
38325;DHT22;24126;52.672;13.622;2022-12-20T06:30:16;8.70;77.30
38325;DHT22;24126;52.672;13.622;2022-12-20T06:32:52;8.70;77.20
38325;DHT22;24126;52.672;13.622;2022-12-20T06:35:20;8.80;77.90
38325;DHT22;24126;52.672;13.622;2022-12-20T06:37:47;8.80;77.10
38325;DHT22;24126;52.672;13.622;2022-12-20T06:40:15;8.80;77.10
38325;DHT22;24126;52.672;13.622;2022-12-20T06:42:42;8.80;77.10
38325;DHT22;24126;52.672;13.622;2022-12-20T06:45:10;8.80;77.20
38325;DHT22;24126;52.672;13.622;2022-12-20T06:47:37;8.80;77.20
38325;DHT22;24126;52.672;13.622;2022-12-20T06:50:05;8.80;77.30
38325;DHT22;24126;52.672;13.622;2022-12-20T06:52:33;8.80;78.10
38325;DHT22;24126;52.672;13.622;2022-12-20T06:55:00;8.80;77.60
38325;DHT22;24126;52.672;13.622;2022-12-20T06:57:29;8.80;77.70
38325;DHT22;24126;52.672;13.622;2022-12-20T06:59:56;8.80;77.80
38325;DHT22;24126;52.672;13.622;2022-12-20T07:02:23;8.80;77.90
38325;DHT22;24126;52.672;13.622;2022-12-20T07:04:50;8.80;78.00
38325;DHT22;24126;52.672;13.622;2022-12-20T07:07:17;8.80;78.10
38325;DHT22;24126;52.672;13.622;2022-12-20T07:09:44;8.80;78.20
38325;DHT22;24126;52.672;13.622;2022-12-20T07:12:11;8.90;78.40
38325;DHT22;24126;52.672;13.622;2022-12-20T07:14:38;8.90;78.50
38325;DHT22;24126;52.672;13.622;2022-12-20T07:17:05;8.90;78.50
38325;DHT22;24126;52.672;13.622;2022-12-20T07:19:33;8.90;78.60
38325;DHT22;24126;52.672;13.622;2022-12-20T07:22:01;9.00;78.80
38325;DHT22;24126;52.672;13.622;2022-12-20T07:24:28;8.90;78.80
38325;DHT22;24126;52.672;13.622;2022-12-20T07:26:55;9.00;78.90
38325;DHT22;24126;52.672;13.622;2022-12-20T07:29:23;9.00;78.90
38325;DHT22;24126;52.672;13.622;2022-12-20T07:31:50;9.10;78.80
38325;DHT22;24126;52.672;13.622;2022-12-20T07:34:17;9.10;78.70
38325;DHT22;24126;52.672;13.622;2022-12-20T07:36:44;9.10;78.60
38325;DHT22;24126;52.672;13.622;2022-12-20T07:39:11;9.20;78.60
38325;DHT22;24126;52.672;13.622;2022-12-20T07:41:39;9.20;78.60
38325;DHT22;24126;52.672;13.622;2022-12-20T07:44:10;9.20;78.40
38325;DHT22;24126;52.672;13.622;2022-12-20T07:46:37;9.30;78.20
38325;DHT22;24126;52.672;13.622;2022-12-20T07:49:04;9.30;78.10
38325;DHT22;24126;52.672;13.622;2022-12-20T07:51:34;9.40;78.10
38325;DHT22;24126;52.672;13.622;2022-12-20T07:54:03;9.40;78.10
38325;DHT22;24126;52.672;13.622;2022-12-20T07:56:32;9.40;78.10
38325;DHT22;24126;52.672;13.622;2022-12-20T07:59:00;9.40;78.10
38325;DHT22;24126;52.672;13.622;2022-12-20T08:01:28;9.40;78.10
38325;DHT22;24126;52.672;13.622;2022-12-20T08:03:59;9.40;78.20
38325;DHT22;24126;52.672;13.622;2022-12-20T08:06:28;9.40;78.40
38325;DHT22;24126;52.672;13.622;2022-12-20T08:08:56;9.40;78.60
38325;DHT22;24126;52.672;13.622;2022-12-20T08:11:24;9.40;78.70
38325;DHT22;24126;52.672;13.622;2022-12-20T08:13:53;9.50;78.70
38325;DHT22;24126;52.672;13.622;2022-12-20T08:16:20;9.40;78.80
38325;DHT22;24126;52.672;13.622;2022-12-20T08:18:47;9.50;79.00
38325;DHT22;24126;52.672;13.622;2022-12-20T08:21:14;9.50;79.00
38325;DHT22;24126;52.672;13.622;2022-12-20T08:23:41;9.50;79.20
38325;DHT22;24126;52.672;13.622;2022-12-20T08:26:08;9.50;79.30
38325;DHT22;24126;52.672;13.622;2022-12-20T08:28:35;9.50;79.40
38325;DHT22;24126;52.672;13.622;2022-12-20T08:31:03;9.50;79.40
38325;DHT22;24126;52.672;13.622;2022-12-20T08:33:31;9.60;79.50
38325;DHT22;24126;52.672;13.622;2022-12-20T08:35:59;9.60;79.50
38325;DHT22;24126;52.672;13.622;2022-12-20T08:38:27;9.60;79.40
38325;DHT22;24126;52.672;13.622;2022-12-20T08:41:00;9.60;79.40
38325;DHT22;24126;52.672;13.622;2022-12-20T08:43:27;9.70;79.50
38325;DHT22;24126;52.672;13.622;2022-12-20T08:45:55;9.70;79.40
38325;DHT22;24126;52.672;13.622;2022-12-20T08:48:22;9.70;79.40
38325;DHT22;24126;52.672;13.622;2022-12-20T08:50:53;9.70;79.30
38325;DHT22;24126;52.672;13.622;2022-12-20T08:53:20;9.80;79.60
38325;DHT22;24126;52.672;13.622;2022-12-20T08:55:47;9.80;79.50
38325;DHT22;24126;52.672;13.622;2022-12-20T08:58:14;9.80;79.40
38325;DHT22;24126;52.672;13.622;2022-12-20T09:00:41;9.80;79.50
38325;DHT22;24126;52.672;13.622;2022-12-20T09:03:08;9.80;79.70
38325;DHT22;24126;52.672;13.622;2022-12-20T09:05:42;9.90;79.80
38325;DHT22;24126;52.672;13.622;2022-12-20T09:08:08;9.90;79.70
38325;DHT22;24126;52.672;13.622;2022-12-20T09:10:35;9.90;79.60
38325;DHT22;24126;52.672;13.622;2022-12-20T09:13:02;9.90;79.50
38325;DHT22;24126;52.672;13.622;2022-12-20T09:15:29;10.00;79.50
38325;DHT22;24126;52.672;13.622;2022-12-20T09:17:56;10.00;79.60
38325;DHT22;24126;52.672;13.622;2022-12-20T09:20:25;10.00;79.60
38325;DHT22;24126;52.672;13.622;2022-12-20T09:22:52;10.00;79.40
38325;DHT22;24126;52.672;13.622;2022-12-20T09:25:19;10.00;79.70
38325;DHT22;24126;52.672;13.622;2022-12-20T09:27:46;10.00;80.10
38325;DHT22;24126;52.672;13.622;2022-12-20T09:30:13;10.00;80.20
38325;DHT22;24126;52.672;13.622;2022-12-20T09:32:40;10.00;80.50
38325;DHT22;24126;52.672;13.622;2022-12-20T09:35:07;10.10;80.50
38325;DHT22;24126;52.672;13.622;2022-12-20T09:37:34;10.10;80.50
38325;DHT22;24126;52.672;13.622;2022-12-20T09:40:01;10.10;80.60
38325;DHT22;24126;52.672;13.622;2022-12-20T09:42:29;10.20;80.80
38325;DHT22;24126;52.672;13.622;2022-12-20T09:45:04;10.20;80.80
38325;DHT22;24126;52.672;13.622;2022-12-20T09:47:32;10.30;80.90
38325;DHT22;24126;52.672;13.622;2022-12-20T09:50:00;10.40;81.10
38325;DHT22;24126;52.672;13.622;2022-12-20T10:00:20;10.60;80.60
38325;DHT22;24126;52.672;13.622;2022-12-20T10:02:47;10.70;80.60
38325;DHT22;24126;52.672;13.622;2022-12-20T10:05:15;10.80;80.40
38325;DHT22;24126;52.672;13.622;2022-12-20T10:07:54;10.80;80.30
38325;DHT22;24126;52.672;13.622;2022-12-20T10:10:36;10.90;80.30
38325;DHT22;24126;52.672;13.622;2022-12-20T10:15:37;11.00;80.30
38325;DHT22;24126;52.672;13.622;2022-12-20T10:23:39;11.10;80.00
38325;DHT22;24126;52.672;13.622;2022-12-20T10:26:09;11.10;80.00
38325;DHT22;24126;52.672;13.622;2022-12-20T10:28:37;11.20;80.00
38325;DHT22;24126;52.672;13.622;2022-12-20T10:31:06;11.20;79.80
38325;DHT22;24126;52.672;13.622;2022-12-20T10:33:34;11.30;80.00
38325;DHT22;24126;52.672;13.622;2022-12-20T10:38:48;11.30;80.00
38325;DHT22;24126;52.672;13.622;2022-12-20T10:41:23;11.40;80.00
38325;DHT22;24126;52.672;13.622;2022-12-20T10:43:54;11.40;79.70
38325;DHT22;24126;52.672;13.622;2022-12-20T10:46:32;11.50;79.70
38325;DHT22;24126;52.672;13.622;2022-12-20T10:49:19;11.50;79.70
38325;DHT22;24126;52.672;13.622;2022-12-20T10:51:50;11.60;79.60
38325;DHT22;24126;52.672;13.622;2022-12-20T10:54:22;11.60;79.40
38325;DHT22;24126;52.672;13.622;2022-12-20T10:56:56;11.60;79.40
38325;DHT22;24126;52.672;13.622;2022-12-20T10:59:32;11.60;79.50
38325;DHT22;24126;52.672;13.622;2022-12-20T11:01:59;11.60;79.50
38325;DHT22;24126;52.672;13.622;2022-12-20T11:04:29;11.60;79.50
38325;DHT22;24126;52.672;13.622;2022-12-20T11:06:57;11.60;79.60
38325;DHT22;24126;52.672;13.622;2022-12-20T11:09:26;11.70;79.50
38325;DHT22;24126;52.672;13.622;2022-12-20T11:11:58;11.70;79.30
38325;DHT22;24126;52.672;13.622;2022-12-20T11:14:25;11.70;79.30
38325;DHT22;24126;52.672;13.622;2022-12-20T11:16:53;11.70;79.20
38325;DHT22;24126;52.672;13.622;2022-12-20T11:19:27;11.80;79.10
38325;DHT22;24126;52.672;13.622;2022-12-20T11:21:58;11.80;79.00
38325;DHT22;24126;52.672;13.622;2022-12-20T11:32:27;11.70;79.10
38325;DHT22;24126;52.672;13.622;2022-12-20T11:35:02;11.80;79.20
38325;DHT22;24126;52.672;13.622;2022-12-20T11:37:33;11.80;79.00
38325;DHT22;24126;52.672;13.622;2022-12-20T11:40:05;11.80;78.80
38325;DHT22;24126;52.672;13.622;2022-12-20T11:48:20;11.90;78.40
38325;DHT22;24126;52.672;13.622;2022-12-20T11:50:57;11.90;78.40
38325;DHT22;24126;52.672;13.622;2022-12-20T11:56:01;12.00;78.50
38325;DHT22;24126;52.672;13.622;2022-12-20T12:03:26;12.00;78.60
38325;DHT22;24126;52.672;13.622;2022-12-20T12:06:05;12.10;78.60
38325;DHT22;24126;52.672;13.622;2022-12-20T12:08:37;12.10;78.30
38325;DHT22;24126;52.672;13.622;2022-12-20T12:13:39;12.20;78.10
38325;DHT22;24126;52.672;13.622;2022-12-20T12:16:15;12.20;78.20
38325;DHT22;24126;52.672;13.622;2022-12-20T12:18:43;12.20;77.90
38325;DHT22;24126;52.672;13.622;2022-12-20T12:21:15;12.20;78.00
38325;DHT22;24126;52.672;13.622;2022-12-20T12:26:21;12.20;77.80
38325;DHT22;24126;52.672;13.622;2022-12-20T12:28:51;12.20;77.80
38325;DHT22;24126;52.672;13.622;2022-12-20T12:31:20;12.20;77.70
38325;DHT22;24126;52.672;13.622;2022-12-20T12:33:52;12.20;77.60
38325;DHT22;24126;52.672;13.622;2022-12-20T12:36:27;12.20;77.60
38325;DHT22;24126;52.672;13.622;2022-12-20T12:46:41;12.20;77.50
38325;DHT22;24126;52.672;13.622;2022-12-20T12:49:18;12.20;77.50
38325;DHT22;24126;52.672;13.622;2022-12-20T12:51:51;12.20;77.60
38325;DHT22;24126;52.672;13.622;2022-12-20T12:56:49;12.20;77.50
38325;DHT22;24126;52.672;13.622;2022-12-20T12:59:21;12.10;77.40
38325;DHT22;24126;52.672;13.622;2022-12-20T13:09:20;12.10;77.40
38325;DHT22;24126;52.672;13.622;2022-12-20T13:11:48;12.10;77.60
38325;DHT22;24126;52.672;13.622;2022-12-20T13:19:32;12.00;77.80
38325;DHT22;24126;52.672;13.622;2022-12-20T13:24:56;12.10;77.80
38325;DHT22;24126;52.672;13.622;2022-12-20T13:27:25;12.00;77.60
38325;DHT22;24126;52.672;13.622;2022-12-20T13:29:55;11.90;77.70
38325;DHT22;24126;52.672;13.622;2022-12-20T13:45:38;11.50;78.20
38325;DHT22;24126;52.672;13.622;2022-12-20T13:48:09;11.40;78.30
38325;DHT22;24126;52.672;13.622;2022-12-20T13:50:38;11.40;78.20
38325;DHT22;24126;52.672;13.622;2022-12-20T13:53:06;11.30;78.20
38325;DHT22;24126;52.672;13.622;2022-12-20T13:55:41;11.30;78.40
38325;DHT22;24126;52.672;13.622;2022-12-20T13:58:17;11.30;78.60
38325;DHT22;24126;52.672;13.622;2022-12-20T14:00:45;11.20;78.60
38325;DHT22;24126;52.672;13.622;2022-12-20T14:03:30;11.20;78.70
38325;DHT22;24126;52.672;13.622;2022-12-20T14:05:58;11.20;78.70
38325;DHT22;24126;52.672;13.622;2022-12-20T14:08:28;11.20;78.70
38325;DHT22;24126;52.672;13.622;2022-12-20T14:11:05;11.30;78.70
38325;DHT22;24126;52.672;13.622;2022-12-20T14:13:32;11.30;78.40
38325;DHT22;24126;52.672;13.622;2022-12-20T14:16:10;11.30;78.20
38325;DHT22;24126;52.672;13.622;2022-12-20T14:18:39;11.20;78.20
38325;DHT22;24126;52.672;13.622;2022-12-20T14:21:06;11.20;78.20
38325;DHT22;24126;52.672;13.622;2022-12-20T14:23:38;11.20;78.10
38325;DHT22;24126;52.672;13.622;2022-12-20T14:26:09;11.20;78.00
38325;DHT22;24126;52.672;13.622;2022-12-20T14:28:41;11.10;78.10
38325;DHT22;24126;52.672;13.622;2022-12-20T14:34:05;11.10;78.30
38325;DHT22;24126;52.672;13.622;2022-12-20T14:36:38;11.10;78.00
38325;DHT22;24126;52.672;13.622;2022-12-20T14:39:25;11.00;77.90
38325;DHT22;24126;52.672;13.622;2022-12-20T14:41:59;11.00;77.80
38325;DHT22;24126;52.672;13.622;2022-12-20T14:44:27;11.00;77.60
38325;DHT22;24126;52.672;13.622;2022-12-20T14:46:55;11.00;77.60
38325;DHT22;24126;52.672;13.622;2022-12-20T14:49:26;11.00;77.40
38325;DHT22;24126;52.672;13.622;2022-12-20T14:52:05;11.00;77.20
38325;DHT22;24126;52.672;13.622;2022-12-20T14:54:32;11.00;77.40
38325;DHT22;24126;52.672;13.622;2022-12-20T14:57:01;11.00;77.20
38325;DHT22;24126;52.672;13.622;2022-12-20T14:59:28;11.00;77.20
38325;DHT22;24126;52.672;13.622;2022-12-20T15:01:56;11.00;77.10
38325;DHT22;24126;52.672;13.622;2022-12-20T15:04:29;11.00;77.10
38325;DHT22;24126;52.672;13.622;2022-12-20T15:06:56;11.00;76.90
38325;DHT22;24126;52.672;13.622;2022-12-20T15:09:23;11.00;76.80
38325;DHT22;24126;52.672;13.622;2022-12-20T15:11:50;11.00;76.60
38325;DHT22;24126;52.672;13.622;2022-12-20T15:16:52;11.00;76.50
38325;DHT22;24126;52.672;13.622;2022-12-20T15:19:19;11.00;76.40
38325;DHT22;24126;52.672;13.622;2022-12-20T15:21:47;11.00;76.30
38325;DHT22;24126;52.672;13.622;2022-12-20T15:24:16;10.90;76.30
38325;DHT22;24126;52.672;13.622;2022-12-20T15:26:44;10.90;76.20
38325;DHT22;24126;52.672;13.622;2022-12-20T15:29:15;10.90;76.20
38325;DHT22;24126;52.672;13.622;2022-12-20T15:31:43;10.90;76.30
38325;DHT22;24126;52.672;13.622;2022-12-20T15:34:14;10.90;76.20
38325;DHT22;24126;52.672;13.622;2022-12-20T15:36:41;10.80;76.10
38325;DHT22;24126;52.672;13.622;2022-12-20T15:39:09;10.80;76.20
38325;DHT22;24126;52.672;13.622;2022-12-20T15:41:37;10.80;76.20
38325;DHT22;24126;52.672;13.622;2022-12-20T15:44:09;10.80;76.10
38325;DHT22;24126;52.672;13.622;2022-12-20T15:46:37;10.90;76.00
38325;DHT22;24126;52.672;13.622;2022-12-20T15:49:04;10.80;75.80
38325;DHT22;24126;52.672;13.622;2022-12-20T15:51:35;10.80;75.80
38325;DHT22;24126;52.672;13.622;2022-12-20T15:54:04;10.80;75.80
38325;DHT22;24126;52.672;13.622;2022-12-20T15:56:31;10.70;75.80
38325;DHT22;24126;52.672;13.622;2022-12-20T15:58:58;10.70;75.90
38325;DHT22;24126;52.672;13.622;2022-12-20T16:01:27;10.60;75.90
38325;DHT22;24126;52.672;13.622;2022-12-20T16:03:54;10.60;76.00
38325;DHT22;24126;52.672;13.622;2022-12-20T16:06:22;10.60;75.90
38325;DHT22;24126;52.672;13.622;2022-12-20T16:08:49;10.60;75.90
38325;DHT22;24126;52.672;13.622;2022-12-20T16:11:25;10.60;75.90
38325;DHT22;24126;52.672;13.622;2022-12-20T16:13:53;10.60;75.90
38325;DHT22;24126;52.672;13.622;2022-12-20T16:16:21;10.50;75.80
38325;DHT22;24126;52.672;13.622;2022-12-20T16:18:49;10.50;75.90
38325;DHT22;24126;52.672;13.622;2022-12-20T16:21:17;10.50;75.90
38325;DHT22;24126;52.672;13.622;2022-12-20T16:23:45;10.40;75.80
38325;DHT22;24126;52.672;13.622;2022-12-20T16:26:13;10.40;75.60
38325;DHT22;24126;52.672;13.622;2022-12-20T16:28:41;10.40;75.60
38325;DHT22;24126;52.672;13.622;2022-12-20T16:31:10;10.40;76.30
38325;DHT22;24126;52.672;13.622;2022-12-20T16:33:37;10.40;75.60
38325;DHT22;24126;52.672;13.622;2022-12-20T16:36:04;10.40;75.50
38325;DHT22;24126;52.672;13.622;2022-12-20T16:38:31;10.30;75.40
38325;DHT22;24126;52.672;13.622;2022-12-20T16:40:58;10.30;75.40
38325;DHT22;24126;52.672;13.622;2022-12-20T16:43:35;10.20;75.30
38325;DHT22;24126;52.672;13.622;2022-12-20T16:46:02;10.20;75.30
38325;DHT22;24126;52.672;13.622;2022-12-20T16:48:29;10.20;75.30
38325;DHT22;24126;52.672;13.622;2022-12-20T16:50:56;10.20;75.30
38325;DHT22;24126;52.672;13.622;2022-12-20T16:53:23;10.20;75.30
38325;DHT22;24126;52.672;13.622;2022-12-20T16:55:50;10.10;75.10
38325;DHT22;24126;52.672;13.622;2022-12-20T16:58:17;10.10;75.10
38325;DHT22;24126;52.672;13.622;2022-12-20T17:00:44;10.10;75.10
38325;DHT22;24126;52.672;13.622;2022-12-20T17:03:11;10.00;75.00
38325;DHT22;24126;52.672;13.622;2022-12-20T17:05:38;10.00;75.00
38325;DHT22;24126;52.672;13.622;2022-12-20T17:08:05;10.00;74.90
38325;DHT22;24126;52.672;13.622;2022-12-20T17:10:32;10.00;74.90
38325;DHT22;24126;52.672;13.622;2022-12-20T17:12:59;10.00;74.90
38325;DHT22;24126;52.672;13.622;2022-12-20T17:15:28;9.90;74.80
38325;DHT22;24126;52.672;13.622;2022-12-20T17:17:56;9.90;74.80
38325;DHT22;24126;52.672;13.622;2022-12-20T17:20:23;9.90;74.90
38325;DHT22;24126;52.672;13.622;2022-12-20T17:22:52;9.90;74.80
38325;DHT22;24126;52.672;13.622;2022-12-20T17:25:26;9.90;74.80